LFBZ Airport Information

Runway Information
Runway 09 Length 7382 ft width 148 ft
Elevation 242 ft Threshold 656 ft Heading 89
Runway 27 Length 7382 ft Width 148 ft
Elevation 219 ft Threshold 0 ft Heading 269
Airport Frequencies
Type APP Name BIARRITZ A Frequency 125.6 MHZ
Type ATIS Name ATIS Frequency 128.225 MHZ
Type GND Name BIARRITZ G Frequency 121.95 MHZ
Type TWR Name BIARRITZ T Frequency 118.7 MHZ
Airport Navaids
Type VOR-DME Name Biarritz Frequency 114150 KHZ
Type NDB Name Biarritz Frequency 341 KHZ
Airport Weather Information & NOTAM
ADDS - METARS form results

(1825 UTC 17 July 2019)
Data provider http://aviationweather.gov/metar/data/
 
METAR text: LFBZ 171800Z AUTO 33009KT 300V020 9999 SCT019 BKN025 OVC052 22/18 Q1017 NOSIG
Conditions at: LFBZ (BIARRITZ/ANGLET , FR) observed 1800 UTC 17 July 2019
Temperature: 22.0°C (72°F)
Dewpoint: 18.0°C (64°F) [RH = 78%]
Pressure (altimeter): 30.03 inches Hg (1017.0 mb)
Winds: from the NNW (330 degrees) at 10 MPH (9 knots; 4.6 m/s)
Visibility: 6 or more miles (10+ km)
Ceiling: 2500 feet AGL
Clouds: scattered clouds at 1900 feet AGL
broken clouds at 2500 feet AGL
overcast cloud deck at 5200 feet AGL
Weather: no significant weather observed at this time

METAR text: LFBZ 171730Z AUTO 33010KT 300V360 9999 FEW020 OVC052 22/18 Q1017 NOSIG
Conditions at: LFBZ (BIARRITZ/ANGLET , FR) observed 1730 UTC 17 July 2019
Temperature: 22.0°C (72°F)
Dewpoint: 18.0°C (64°F) [RH = 78%]
Pressure (altimeter): 30.03 inches Hg (1017.0 mb)
Winds: from the NNW (330 degrees) at 12 MPH (10 knots; 5.1 m/s)
Visibility: 6 or more miles (10+ km)
Ceiling: 5200 feet AGL
Clouds: few clouds at 2000 feet AGL
overcast cloud deck at 5200 feet AGL
Weather: no significant weather observed at this time

Forecast for: LFBZ (BIARRITZ/ANGLET , FR)
Text: TAF LFBZ 171700Z 1718/1818 32010KT 9999 SCT025 BKN045 BKN100
Forecast period: 1800 UTC 17 July 2019 to 1300 UTC 18 July 2019
Forecast type: FROM: standard forecast or significant change
Winds: from the NW (320 degrees) at 12 MPH (10 knots; 5.1 m/s)
Visibility: 6 or more miles 10+ km)
Ceiling: 4500 feet AGL
Clouds: scattered clouds at 2500 feet AGL
broken clouds at 4500 feet AGL
broken clouds at 10000 feet AGL
Weather: no significant weather forecast for this period
Text: PROB30
Forecast period: 0300 to 0900 UTC 18 July 2019
Forecast type: TEMPORARY: The following changes expected for less than half the time period
Visibility: 2.49 miles (4.01 km)
Ceiling: 1400 feet AGL
Clouds: broken clouds at 1400 feet AGL
broken clouds at 2000 feet AGL
Weather: DZ  (moderate drizzle)
Text: TEMPO 1803/1809 4000 DZ BKN014 BKN020
Forecast period: 1300 to 1800 UTC 18 July 2019
Forecast type: BECOMING: Conditions expected to become as follows by 1500 UTC 18 July 2019
Winds: from the NW (320 degrees) at 12 MPH (10 knots; 5.1 m/s)
Visibility: 6 or more miles 10+ km)
Ceiling: unknown
Clouds: missing
Weather: NSW  (no significant weather)